Time;durP1;ratioP1;P1;durP2;ratioP2;P2;SDS_P1;SDS_P2;PMS_P1;PMS_P2;Temp;Humidity;BMP_temperature;BMP_pressure;BME280_temperature;BME280_humidity;BME280_pressure;Samples;Min_cycle;Max_cycle;Signal;HPM_P1;HPM_P2
2024/01/23 00:01:50;;;;;;;15.03;1.97;;;6.40;99.90;;;;;;5055374;28;20043;-67
2024/01/23 00:04:16;;;;;;;15.02;2.00;;;6.40;99.90;;;;;;5058451;28;20216;-67
2024/01/23 00:06:42;;;;;;;14.10;2.63;;;6.40;99.90;;;;;;5057129;28;20308;-68
2024/01/23 00:09:10;;;;;;;11.33;2.30;;;6.40;99.90;;;;;;5061136;28;20033;-68
2024/01/23 00:11:35;;;;;;;18.98;2.30;;;6.40;99.90;;;;;;5057719;28;20044;-68
2024/01/23 00:14:03;;;;;;;14.55;2.28;;;6.30;99.90;;;;;;5063032;28;20066;-68
2024/01/23 00:16:29;;;;;;;19.33;2.70;;;6.30;99.90;;;;;;5037332;28;20071;-68
2024/01/23 00:18:55;;;;;;;28.87;2.80;;;6.30;99.90;;;;;;5059024;28;20037;-68
2024/01/23 00:21:23;;;;;;;11.87;1.90;;;6.30;99.90;;;;;;5059206;28;20059;-68
2024/01/23 00:23:48;;;;;;;24.15;2.83;;;6.40;99.90;;;;;;5060694;28;20047;-68
2024/01/23 00:26:17;;;;;;;13.60;2.35;;;6.40;99.90;;;;;;5052880;28;20527;-68
2024/01/23 00:28:43;;;;;;;10.48;1.83;;;6.40;99.90;;;;;;5057089;28;20041;-67
2024/01/23 00:31:09;;;;;;;21.47;2.53;;;6.40;99.90;;;;;;5060318;28;20064;-68
2024/01/23 00:33:37;;;;;;;9.23;1.80;;;6.40;99.90;;;;;;5053135;28;20036;-67
2024/01/23 00:36:03;;;;;;;16.67;3.78;;;6.40;99.90;;;;;;5051054;28;20297;-68
2024/01/23 00:38:29;;;;;;;18.05;2.72;;;6.40;99.90;;;;;;5062240;28;20039;-69
2024/01/23 00:40:54;;;;;;;17.93;3.27;;;6.30;99.90;;;;;;5054529;28;20044;-68
2024/01/23 00:43:20;;;;;;;16.73;2.47;;;6.30;99.90;;;;;;5057123;28;20178;-68
2024/01/23 00:45:46;;;;;;;9.67;1.80;;;6.30;99.90;;;;;;5059130;28;20520;-68
2024/01/23 00:48:14;;;;;;;9.70;2.40;;;6.30;99.90;;;;;;5063724;28;20420;-68
2024/01/23 00:50:42;;;;;;;18.05;3.08;;;6.30;99.90;;;;;;5052925;28;20036;-67
2024/01/23 00:53:07;;;;;;;12.23;2.80;;;6.30;99.90;;;;;;5054756;28;20560;-68
2024/01/23 00:55:33;;;;;;;14.50;3.53;;;6.30;99.90;;;;;;5053031;28;20131;-68
2024/01/23 00:57:59;;;;;;;10.87;2.47;;;6.30;99.90;;;;;;5054066;28;20345;-68
2024/01/23 01:00:24;;;;;;;12.40;2.10;;;6.30;99.90;;;;;;5067672;28;20067;-68
2024/01/23 01:02:50;;;;;;;20.80;3.17;;;6.30;99.90;;;;;;5060746;28;20044;-68
2024/01/23 01:05:18;;;;;;;21.23;2.70;;;6.30;99.90;;;;;;5067770;28;20098;-67
2024/01/23 01:07:43;;;;;;;11.27;3.20;;;6.30;99.90;;;;;;5064145;28;20028;-67
2024/01/23 01:10:09;;;;;;;13.90;2.03;;;6.30;99.90;;;;;;5065406;28;20051;-68
2024/01/23 01:12:35;;;;;;;11.00;2.05;;;6.20;99.90;;;;;;5057039;28;20338;-67
2024/01/23 01:15:02;;;;;;;12.48;2.15;;;6.20;99.90;;;;;;5060629;28;20094;-67
2024/01/23 01:17:28;;;;;;;14.15;2.33;;;6.20;99.90;;;;;;5062157;28;20147;-68
2024/01/23 01:19:54;;;;;;;15.60;2.33;;;6.20;99.90;;;;;;5058469;28;20135;-68
2024/01/23 01:22:20;;;;;;;13.70;2.35;;;6.20;99.90;;;;;;5063271;28;20048;-68
2024/01/23 01:24:46;;;;;;;13.75;1.65;;;6.20;99.90;;;;;;5058833;28;20052;-67
2024/01/23 01:27:12;;;;;;;13.27;2.47;;;6.10;99.90;;;;;;5069559;28;20483;-68
2024/01/23 01:29:41;;;;;;;15.53;2.47;;;6.10;99.90;;;;;;5060999;28;20040;-67
2024/01/23 01:32:07;;;;;;;19.33;2.67;;;6.10;99.90;;;;;;5061090;28;20123;-67
2024/01/23 01:34:33;;;;;;;15.32;2.33;;;6.10;99.90;;;;;;5060573;28;20203;-67
2024/01/23 01:36:59;;;;;;;13.33;2.17;;;6.10;99.90;;;;;;5058215;28;20214;-67
2024/01/23 01:39:24;;;;;;;13.97;2.60;;;6.10;99.90;;;;;;5067818;28;20051;-68
2024/01/23 01:41:54;;;;;;;16.10;1.67;;;6.10;99.90;;;;;;5042807;28;20052;-67
2024/01/23 01:44:20;;;;;;;19.45;2.78;;;6.10;99.90;;;;;;5057183;28;20416;-68
2024/01/23 01:46:46;;;;;;;14.13;2.70;;;6.00;99.90;;;;;;5058948;28;20040;-68
2024/01/23 01:49:13;;;;;;;14.85;2.60;;;6.00;99.90;;;;;;5059898;28;20131;-68
2024/01/23 01:51:39;;;;;;;14.77;2.97;;;6.00;99.90;;;;;;5057571;28;20040;-68
2024/01/23 01:54:05;;;;;;;13.47;2.90;;;6.00;99.90;;;;;;5057021;28;20047;-67
2024/01/23 01:56:31;;;;;;;14.82;2.75;;;6.00;99.90;;;;;;5058699;28;20032;-68
2024/01/23 01:59:00;;;;;;;14.35;2.55;;;6.00;99.90;;;;;;5059373;28;20040;-68
2024/01/23 02:01:27;;;;;;;18.33;3.53;;;6.00;99.90;;;;;;5061316;28;20044;-68
2024/01/23 02:03:53;;;;;;;;;;;5.90;99.90;;;;;;5058926;28;20052;-67
2024/01/23 02:06:19;;;;;;;13.80;1.95;;;6.00;99.90;;;;;;5055745;28;19923;-68
2024/01/23 02:08:46;;;;;;;19.08;3.15;;;6.00;99.90;;;;;;5059889;28;20140;-67
2024/01/23 02:11:12;;;;;;;12.13;2.70;;;5.90;99.90;;;;;;5053159;28;20047;-67
2024/01/23 02:13:38;;;;;;;16.98;2.15;;;6.00;99.90;;;;;;5042768;28;20485;-68
2024/01/23 02:16:04;;;;;;;15.77;3.37;;;6.00;99.90;;;;;;5058592;28;20045;-68
2024/01/23 02:18:29;;;;;;;11.48;2.97;;;6.00;99.90;;;;;;5056627;28;20040;-68
2024/01/23 02:20:55;;;;;;;15.50;2.70;;;6.00;99.90;;;;;;5058227;28;20466;-68
2024/01/23 02:23:24;;;;;;;13.57;2.77;;;6.00;99.90;;;;;;5058548;28;20051;-69
2024/01/23 02:25:49;;;;;;;18.88;2.83;;;5.90;99.90;;;;;;5058949;28;20556;-71
2024/01/23 02:28:15;;;;;;;22.50;3.67;;;5.90;99.90;;;;;;5064239;28;20123;-71
2024/01/23 02:30:41;;;;;;;13.47;2.80;;;6.00;99.90;;;;;;5050204;28;20052;-70
2024/01/23 02:33:07;;;;;;;26.37;3.00;;;6.00;99.90;;;;;;5061007;28;20029;-71
2024/01/23 02:35:33;;;;;;;20.73;2.93;;;6.00;99.90;;;;;;5055354;28;20090;-73
2024/01/23 02:38:02;;;;;;;16.35;3.78;;;6.00;99.90;;;;;;5056799;28;20043;-71
2024/01/23 02:40:27;;;;;;;19.45;3.03;;;6.00;99.90;;;;;;5060194;28;20037;-68
2024/01/23 02:42:53;;;;;;;14.93;2.07;;;6.00;99.90;;;;;;5048995;28;20417;-68
2024/01/23 02:45:20;;;;;;;10.37;2.47;;;6.10;99.90;;;;;;5055432;28;20452;-68
2024/01/23 02:47:46;;;;;;;14.77;3.17;;;6.10;99.90;;;;;;5054166;28;20396;-68
2024/01/23 02:50:12;;;;;;;22.23;3.43;;;6.10;99.90;;;;;;5061734;28;20041;-68
2024/01/23 02:52:37;;;;;;;10.98;2.30;;;6.10;99.90;;;;;;5034226;28;20519;-69
2024/01/23 02:55:04;;;;;;;21.13;3.60;;;6.10;99.90;;;;;;5057696;28;20036;-69
2024/01/23 02:57:30;;;;;;;17.17;2.85;;;6.10;99.90;;;;;;5057111;28;20037;-67
2024/01/23 02:59:55;;;;;;;16.33;2.90;;;6.20;99.90;;;;;;5062198;28;20064;-68
2024/01/23 03:02:24;;;;;;;24.27;3.38;;;6.20;99.90;;;;;;5063567;28;20049;-67
2024/01/23 03:04:50;;;;;;;12.23;2.38;;;6.20;99.90;;;;;;5068927;28;20495;-67
2024/01/23 03:07:19;;;;;;;21.83;4.18;;;6.20;99.90;;;;;;5053080;28;20040;-68
2024/01/23 03:09:47;;;;;;;20.07;2.87;;;6.30;99.90;;;;;;5055377;28;20036;-69
2024/01/23 03:12:22;;;;;;;18.40;3.42;;;6.30;99.90;;;;;;5057628;28;20046;-68
2024/01/23 03:14:49;;;;;;;17.55;2.90;;;6.30;99.90;;;;;;5065220;28;20485;-69
2024/01/23 03:17:16;;;;;;;19.23;3.33;;;6.30;99.90;;;;;;5057238;28;20065;-69
2024/01/23 03:19:45;;;;;;;20.67;2.42;;;6.40;99.90;;;;;;5058967;28;20067;-69
2024/01/23 03:22:10;;;;;;;26.88;3.30;;;6.40;99.90;;;;;;5043216;28;20480;-69
2024/01/23 03:24:40;;;;;;;18.53;2.97;;;6.40;99.90;;;;;;5058603;28;20415;-69
2024/01/23 03:27:06;;;;;;;15.20;2.58;;;6.40;99.90;;;;;;5055645;28;20093;-69
2024/01/23 03:29:41;;;;;;;15.15;3.00;;;6.50;99.90;;;;;;5059607;28;20561;-69
2024/01/23 03:32:07;;;;;;;14.70;2.50;;;6.50;99.90;;;;;;5049918;28;20509;-69
2024/01/23 03:34:36;;;;;;;19.67;2.63;;;6.50;99.90;;;;;;5056765;28;20064;-68
2024/01/23 03:37:05;;;;;;;16.35;2.58;;;6.60;99.90;;;;;;5059938;28;20032;-68
2024/01/23 03:39:31;;;;;;;15.00;3.28;;;6.60;99.90;;;;;;5060412;28;20044;-69
2024/01/23 03:41:57;;;;;;;32.27;3.97;;;6.60;99.90;;;;;;5051604;28;20404;-68
2024/01/23 03:44:26;;;;;;;17.65;3.00;;;6.60;99.90;;;;;;5050974;28;20064;-69
2024/01/23 03:46:52;;;;;;;27.45;4.13;;;6.60;99.90;;;;;;5061230;28;20094;-69
2024/01/23 03:49:19;;;;;;;15.98;2.40;;;6.70;99.90;;;;;;5050366;28;20036;-69
2024/01/23 03:51:45;;;;;;;19.40;2.45;;;6.70;99.90;;;;;;5046087;28;20459;-69
2024/01/23 03:54:13;;;;;;;16.38;2.83;;;6.70;99.90;;;;;;5052329;28;20047;-69
2024/01/23 03:56:39;;;;;;;21.77;3.33;;;6.80;99.90;;;;;;5053851;28;20091;-69
2024/01/23 03:59:05;;;;;;;20.30;2.87;;;6.80;99.90;;;;;;5036614;28;20259;-69
2024/01/23 04:01:34;;;;;;;21.80;3.37;;;6.90;99.90;;;;;;5059199;28;20123;-68
2024/01/23 04:04:00;;;;;;;14.10;2.88;;;6.80;99.90;;;;;;5057760;28;20119;-68
2024/01/23 04:06:25;;;;;;;12.85;3.20;;;6.80;99.90;;;;;;5053365;28;20127;-69
2024/01/23 04:08:51;;;;;;;21.43;3.13;;;6.80;99.90;;;;;;5051150;28;20201;-69
2024/01/23 04:11:17;;;;;;;29.23;3.70;;;6.90;99.90;;;;;;5034894;28;20055;-69
2024/01/23 04:13:43;;;;;;;14.17;4.50;;;6.90;99.90;;;;;;5055348;28;20040;-69
2024/01/23 04:16:09;;;;;;;23.40;3.13;;;6.90;99.90;;;;;;5058571;28;20111;-69
2024/01/23 04:18:35;;;;;;;21.93;3.87;;;6.90;99.90;;;;;;5057241;28;20123;-69
2024/01/23 04:21:01;;;;;;;21.15;4.18;;;6.90;99.90;;;;;;5058553;28;20762;-69
2024/01/23 04:23:28;;;;;;;27.73;3.45;;;6.90;99.90;;;;;;5056754;28;20079;-68
2024/01/23 04:25:53;;;;;;;;;;;6.90;99.90;;;;;;5056805;28;20536;-68
2024/01/23 04:28:20;;;;;;;17.15;3.75;;;7.00;99.90;;;;;;5058005;28;19927;-69
2024/01/23 04:30:46;;;;;;;16.35;3.10;;;7.00;99.90;;;;;;5052891;28;20127;-69
2024/01/23 04:33:12;;;;;;;22.65;4.25;;;7.00;99.90;;;;;;5054789;28;20043;-69
2024/01/23 04:35:38;;;;;;;22.57;4.13;;;7.00;99.90;;;;;;5055742;28;20044;-68
2024/01/23 04:38:03;;;;;;;17.57;3.07;;;7.00;99.90;;;;;;5036819;28;20483;-69
2024/01/23 04:40:34;;;;;;;20.38;2.97;;;7.00;99.90;;;;;;5050774;28;20041;-70
2024/01/23 04:43:00;;;;;;;16.08;3.28;;;7.00;99.90;;;;;;5053326;28;20040;-69
2024/01/23 04:45:25;;;;;;;21.00;3.67;;;7.00;99.90;;;;;;5051852;28;20280;-69
2024/01/23 04:47:51;;;;;;;20.00;3.33;;;7.00;99.90;;;;;;5055185;28;20043;-69
2024/01/23 04:50:17;;;;;;;19.00;3.17;;;7.00;99.90;;;;;;5057329;28;20374;-68
2024/01/23 04:52:42;;;;;;;26.73;3.87;;;7.00;99.90;;;;;;5049756;28;20037;-69
2024/01/23 04:55:11;;;;;;;30.67;4.30;;;7.00;99.90;;;;;;5052465;28;20468;-68
2024/01/23 04:57:37;;;;;;;17.70;3.28;;;7.10;99.90;;;;;;5047463;28;20379;-69
2024/01/23 05:00:04;;;;;;;23.77;4.43;;;7.10;99.90;;;;;;5053585;28;20135;-69
2024/01/23 05:02:30;;;;;;;22.52;3.50;;;7.00;99.90;;;;;;5057141;28;20053;-69
2024/01/23 05:04:56;;;;;;;14.17;3.37;;;7.00;99.90;;;;;;5054465;28;20044;-69
2024/01/23 05:07:21;;;;;;;24.10;3.30;;;7.00;99.90;;;;;;5047780;28;20059;-69
2024/01/23 05:09:47;;;;;;;19.67;3.70;;;6.90;99.90;;;;;;5052113;28;20082;-68
2024/01/23 05:12:16;;;;;;;26.10;4.47;;;7.00;99.90;;;;;;5053684;28;20048;-69
2024/01/23 05:14:41;;;;;;;21.07;3.40;;;6.90;99.90;;;;;;5053984;28;20094;-69
2024/01/23 05:17:10;;;;;;;20.37;3.30;;;7.00;99.90;;;;;;5056882;28;20276;-69
2024/01/23 05:19:35;;;;;;;19.85;3.50;;;6.90;99.90;;;;;;5051704;28;20049;-68
2024/01/23 05:22:01;;;;;;;25.87;4.80;;;6.90;99.90;;;;;;5033939;28;20120;-67
2024/01/23 05:24:27;;;;;;;22.53;2.87;;;6.80;99.90;;;;;;5040494;28;20489;-67
2024/01/23 05:26:53;;;;;;;27.75;4.82;;;6.90;99.90;;;;;;5052438;28;20571;-68
2024/01/23 05:29:18;;;;;;;27.00;4.03;;;6.80;99.90;;;;;;5057114;28;20493;-68
2024/01/23 05:31:45;;;;;;;22.43;4.07;;;6.80;99.90;;;;;;5051178;28;21417;-68
2024/01/23 05:34:10;;;;;;;19.80;2.85;;;6.80;99.90;;;;;;5055886;28;20037;-68
2024/01/23 05:36:38;;;;;;;23.13;4.33;;;6.70;99.90;;;;;;5048127;28;20075;-68
2024/01/23 05:39:04;;;;;;;21.38;3.60;;;6.70;99.90;;;;;;5055105;28;20502;-70
2024/01/23 05:41:30;;;;;;;29.42;4.03;;;6.60;99.90;;;;;;5055514;28;20053;-70
2024/01/23 05:43:57;;;;;;;19.00;3.07;;;6.60;99.90;;;;;;5055893;28;20501;-69
2024/01/23 05:46:23;;;;;;;19.85;3.85;;;6.50;99.90;;;;;;5063878;28;20499;-69
2024/01/23 05:48:48;;;;;;;26.77;4.53;;;6.50;99.90;;;;;;5063610;28;20041;-73
2024/01/23 05:51:14;;;;;;;30.50;3.80;;;6.40;99.90;;;;;;5054011;28;20108;-70
2024/01/23 05:53:39;;;;;;;23.47;3.43;;;6.40;99.90;;;;;;5056801;28;20709;-70
2024/01/23 05:56:05;;;;;;;29.50;4.87;;;6.40;99.90;;;;;;5059498;28;20124;-70
2024/01/23 05:58:31;;;;;;;32.40;3.92;;;6.30;99.90;;;;;;5042228;28;20874;-73
2024/01/23 06:01:00;;;;;;;24.73;3.50;;;6.30;99.90;;;;;;5052926;28;20438;-70
2024/01/23 06:03:26;;;;;;;25.98;3.55;;;6.30;99.90;;;;;;5064238;28;20047;-70
2024/01/23 06:05:53;;;;;;;29.63;4.65;;;6.30;99.90;;;;;;5055681;28;20412;-71
2024/01/23 06:08:21;;;;;;;24.65;4.30;;;6.30;99.90;;;;;;5055989;28;20536;-70
2024/01/23 06:10:47;;;;;;;28.30;3.95;;;6.30;99.90;;;;;;5054199;28;20531;-71
2024/01/23 06:13:13;;;;;;;22.80;4.87;;;6.30;99.90;;;;;;5057087;28;20040;-68
2024/01/23 06:15:38;;;;;;;24.73;4.87;;;6.30;99.90;;;;;;5061385;28;20110;-71
2024/01/23 06:18:07;;;;;;;19.83;4.97;;;6.20;99.90;;;;;;5062717;28;20051;-69
2024/01/23 06:20:36;;;;;;;23.25;3.35;;;6.20;99.90;;;;;;5060708;28;20036;-71
2024/01/23 06:23:02;;;;;;;15.73;3.38;;;6.20;99.90;;;;;;5057745;28;20275;-77
2024/01/23 06:25:29;;;;;;;23.67;4.70;;;6.20;99.90;;;;;;5049829;28;20036;-76
2024/01/23 06:27:55;;;;;;;23.80;4.40;;;6.20;99.90;;;;;;5053409;28;20448;-68
2024/01/23 06:30:21;;;;;;;24.60;5.40;;;6.20;99.90;;;;;;5058415;28;20044;-72
2024/01/23 06:32:46;;;;;;;29.57;4.97;;;6.20;99.90;;;;;;5037766;28;20102;-74
2024/01/23 06:35:12;;;;;;;30.13;3.73;;;6.10;99.90;;;;;;5058399;28;20048;-71
2024/01/23 06:37:38;;;;;;;18.13;4.27;;;6.10;99.90;;;;;;5036046;28;20481;-70
2024/01/23 06:40:04;;;;;;;25.08;5.35;;;6.10;99.90;;;;;;5061775;28;20102;-73
2024/01/23 06:42:30;;;;;;;23.00;4.20;;;6.10;99.90;;;;;;5053077;28;20044;-69
2024/01/23 06:44:55;;;;;;;21.90;4.23;;;6.10;99.90;;;;;;5054752;28;20047;-76
2024/01/23 06:47:21;;;;;;;25.33;3.50;;;6.10;99.90;;;;;;5052825;28;20405;-69
2024/01/23 06:49:47;;;;;;;18.77;4.10;;;6.10;99.90;;;;;;5053010;28;20049;-69
2024/01/23 06:52:13;;;;;;;21.60;3.90;;;6.10;99.90;;;;;;5060821;28;20036;-70
2024/01/23 06:54:41;;;;;;;26.13;3.73;;;6.10;99.90;;;;;;5053274;28;20044;-68
2024/01/23 06:57:07;;;;;;;21.77;4.22;;;6.10;99.90;;;;;;5056731;28;20401;-69
2024/01/23 06:59:32;;;;;;;33.30;4.10;;;6.10;99.90;;;;;;5039877;28;20048;-69
2024/01/23 07:01:58;;;;;;;24.57;4.00;;;6.10;99.90;;;;;;5058649;28;20047;-69
2024/01/23 07:04:24;;;;;;;24.73;4.28;;;6.10;99.90;;;;;;5058676;28;20040;-69
2024/01/23 07:06:49;;;;;;;20.70;3.40;;;6.10;99.90;;;;;;5053849;28;20462;-69
2024/01/23 07:09:15;;;;;;;29.80;3.80;;;6.10;99.90;;;;;;5059553;28;20570;-68
2024/01/23 07:11:41;;;;;;;23.03;3.77;;;6.10;99.90;;;;;;5055727;28;20036;-69
2024/01/23 07:14:08;;;;;;;31.13;4.10;;;6.00;99.90;;;;;;5056764;28;20502;-69
2024/01/23 07:16:34;;;;;;;23.13;3.47;;;6.00;99.90;;;;;;5051980;28;20044;-69
2024/01/23 07:19:00;;;;;;;26.42;4.13;;;6.00;99.90;;;;;;5060104;28;20075;-69
2024/01/23 07:21:26;;;;;;;26.17;3.17;;;6.00;99.90;;;;;;5054459;28;20080;-70
2024/01/23 07:23:54;;;;;;;27.05;4.65;;;6.00;99.90;;;;;;5056492;28;20045;-68
2024/01/23 07:26:19;;;;;;;22.33;3.80;;;6.00;99.90;;;;;;5056862;28;20068;-69
2024/01/23 07:28:45;;;;;;;25.47;3.60;;;5.90;99.90;;;;;;5042183;28;20044;-69
2024/01/23 07:31:13;;;;;;;22.43;4.83;;;5.90;99.90;;;;;;5056036;28;20294;-69
2024/01/23 07:33:39;;;;;;;20.20;4.68;;;5.80;99.90;;;;;;5057841;28;20097;-69
2024/01/23 07:36:05;;;;;;;34.30;4.28;;;5.90;99.90;;;;;;5045975;28;20037;-68
2024/01/23 07:38:30;;;;;;;26.35;4.47;;;5.90;99.90;;;;;;5055520;28;20469;-68
2024/01/23 07:40:56;;;;;;;31.07;3.47;;;5.80;99.90;;;;;;5063299;28;20058;-68
2024/01/23 07:43:28;;;;;;;19.43;3.03;;;5.80;99.90;;;;;;5041258;28;20036;-69
2024/01/23 07:45:54;;;;;;;23.17;3.55;;;5.80;99.90;;;;;;5034927;28;20522;-68
2024/01/23 07:48:20;;;;;;;21.58;4.47;;;5.80;99.90;;;;;;5041207;28;20044;-68
2024/01/23 07:50:46;;;;;;;20.20;3.17;;;5.70;99.90;;;;;;5061437;28;20535;-69
2024/01/23 07:53:15;;;;;;;25.58;4.75;;;5.70;99.90;;;;;;5059060;28;20032;-69
2024/01/23 07:55:41;;;;;;;28.15;4.65;;;5.70;99.90;;;;;;5054845;28;20147;-68
2024/01/23 07:58:07;;;;;;;25.27;5.57;;;5.70;99.90;;;;;;5061724;28;20052;-69
2024/01/23 08:00:32;;;;;;;23.08;4.53;;;5.70;99.90;;;;;;5058068;28;20392;-68
2024/01/23 08:02:58;;;;;;;25.30;4.90;;;5.70;99.90;;;;;;5057552;28;20037;-69
2024/01/23 08:05:24;;;;;;;30.40;3.93;;;5.70;99.90;;;;;;5057431;28;20032;-69
2024/01/23 08:07:49;;;;;;;25.30;4.93;;;5.70;99.90;;;;;;5055505;28;20044;-69
2024/01/23 08:10:15;;;;;;;22.77;4.07;;;5.70;99.90;;;;;;5059132;28;20052;-69
2024/01/23 08:12:41;;;;;;;29.50;4.43;;;5.70;99.90;;;;;;5055600;28;20492;-68
2024/01/23 08:15:07;;;;;;;39.83;4.83;;;5.70;99.90;;;;;;5055800;28;20262;-68
2024/01/23 08:17:33;;;;;;;;;;;5.70;99.90;;;;;;5062379;28;20503;-69
2024/01/23 08:19:58;;;;;;;26.30;4.45;;;5.70;99.90;;;;;;5059985;28;19996;-69
2024/01/23 08:22:24;;;;;;;26.27;3.73;;;5.70;99.90;;;;;;5061982;28;20036;-69
2024/01/23 08:24:50;;;;;;;20.90;4.03;;;5.70;99.90;;;;;;5051027;28;20029;-69
2024/01/23 08:27:15;;;;;;;16.17;2.93;;;5.60;99.90;;;;;;5061273;28;20043;-69
2024/01/23 08:29:41;;;;;;;22.10;3.70;;;5.70;99.90;;;;;;5055898;28;20067;-68
2024/01/23 08:32:06;;;;;;;17.87;4.43;;;5.60;99.90;;;;;;5055408;28;20041;-68
2024/01/23 08:34:32;;;;;;;21.37;4.87;;;5.70;99.90;;;;;;5060061;28;20054;-68
2024/01/23 08:36:58;;;;;;;24.27;5.80;;;5.70;99.90;;;;;;5058697;28;20033;-68
2024/01/23 08:39:23;;;;;;;23.40;4.03;;;5.70;99.90;;;;;;5059971;28;20044;-68
2024/01/23 08:41:50;;;;;;;23.80;3.73;;;5.70;99.90;;;;;;5053634;28;20053;-68
2024/01/23 08:44:15;;;;;;;28.80;4.13;;;5.60;99.90;;;;;;5044220;28;20089;-68
2024/01/23 08:46:41;;;;;;;27.30;4.07;;;5.70;99.90;;;;;;5057665;28;20129;-68
2024/01/23 08:49:06;;;;;;;19.67;4.77;;;5.70;99.90;;;;;;5058200;28;20048;-68
2024/01/23 08:51:32;;;;;;;26.97;5.77;;;5.70;99.90;;;;;;5055631;28;20111;-68
2024/01/23 08:53:58;;;;;;;26.23;4.20;;;5.80;99.90;;;;;;5059240;28;20413;-68
2024/01/23 08:56:24;;;;;;;20.27;3.90;;;5.80;99.90;;;;;;5062541;28;20384;-68
2024/01/23 08:58:51;;;;;;;29.65;4.45;;;5.80;99.90;;;;;;5059615;28;20048;-68
2024/01/23 09:01:17;;;;;;;35.65;4.30;;;5.80;99.90;;;;;;5061030;28;20204;-68
2024/01/23 09:03:46;;;;;;;18.05;3.03;;;5.80;99.90;;;;;;5055932;28;20044;-68
2024/01/23 09:06:12;;;;;;;16.30;4.40;;;5.80;99.90;;;;;;5058901;28;20045;-68
2024/01/23 09:08:41;;;;;;;17.92;4.15;;;5.80;99.90;;;;;;5061209;28;20041;-68
2024/01/23 09:11:07;;;;;;;24.85;4.45;;;5.80;99.90;;;;;;5058004;28;20132;-68
2024/01/23 09:13:32;;;;;;;30.50;4.67;;;5.90;99.90;;;;;;5065414;28;20124;-68
2024/01/23 09:16:01;;;;;;;18.50;3.43;;;5.90;99.90;;;;;;5060273;28;20080;-68
2024/01/23 09:18:28;;;;;;;21.73;4.47;;;5.90;99.90;;;;;;5054901;28;20045;-68
2024/01/23 09:20:54;;;;;;;26.70;4.00;;;5.90;99.90;;;;;;5061366;28;20454;-68
2024/01/23 09:23:19;;;;;;;24.65;5.35;;;6.00;99.90;;;;;;5047413;28;20090;-68
2024/01/23 09:25:45;;;;;;;18.17;3.07;;;6.00;99.90;;;;;;5064919;28;20400;-68
2024/01/23 09:28:11;;;;;;;21.93;3.80;;;6.10;99.90;;;;;;5059895;28;20041;-69
2024/01/23 09:30:37;;;;;;;28.02;4.18;;;6.10;99.90;;;;;;5048104;28;20067;-68
2024/01/23 09:33:03;;;;;;;24.93;3.90;;;6.10;99.90;;;;;;5062100;28;20062;-68
2024/01/23 09:35:30;;;;;;;31.45;3.75;;;6.20;99.90;;;;;;5045631;28;20119;-68
2024/01/23 09:37:56;;;;;;;20.85;4.13;;;6.30;99.90;;;;;;5060929;28;20040;-68
2024/01/23 09:40:22;;;;;;;26.27;4.05;;;6.40;99.90;;;;;;5064658;28;20116;-68
2024/01/23 09:42:48;;;;;;;26.77;4.43;;;6.50;99.90;;;;;;5058493;28;20128;-68
2024/01/23 09:45:18;;;;;;;23.63;3.67;;;6.60;99.90;;;;;;5058576;28;20040;-68
2024/01/23 09:47:48;;;;;;;17.30;3.40;;;6.70;99.90;;;;;;5059391;28;20064;-68
2024/01/23 09:50:17;;;;;;;29.10;3.53;;;6.70;99.90;;;;;;5062583;28;20110;-68
2024/01/23 09:52:45;;;;;;;33.33;4.80;;;6.70;99.90;;;;;;5061322;28;20032;-68
2024/01/23 09:55:11;;;;;;;20.77;3.67;;;6.70;99.90;;;;;;5066751;28;20120;-68
2024/01/23 09:57:38;;;;;;;23.77;4.13;;;6.70;99.90;;;;;;5064040;28;20124;-68
2024/01/23 10:00:07;;;;;;;28.73;4.38;;;6.80;99.90;;;;;;5046219;28;20288;-68
2024/01/23 10:02:35;;;;;;;33.38;4.22;;;6.90;99.90;;;;;;5066275;28;20044;-68
2024/01/23 10:05:02;;;;;;;33.83;4.13;;;6.90;99.90;;;;;;5062891;28;20411;-68
2024/01/23 10:07:28;;;;;;;24.33;4.28;;;6.90;99.90;;;;;;5056307;28;20041;-68
2024/01/23 10:09:59;;;;;;;21.40;4.37;;;6.90;99.90;;;;;;5061679;28;21136;-68
2024/01/23 10:12:24;;;;;;;27.10;3.65;;;7.00;99.90;;;;;;5062961;28;20116;-68
2024/01/23 10:14:50;;;;;;;25.90;5.47;;;7.10;99.90;;;;;;5061149;28;20104;-68
2024/01/23 10:17:15;;;;;;;25.93;4.10;;;7.10;99.90;;;;;;5061646;28;20040;-68
2024/01/23 10:19:42;;;;;;;30.77;4.97;;;7.10;99.90;;;;;;5063124;28;20051;-68
2024/01/23 10:22:08;;;;;;;31.08;4.43;;;7.10;99.90;;;;;;5064156;28;20041;-68
2024/01/23 10:24:33;;;;;;;31.55;4.10;;;7.20;99.90;;;;;;5064089;28;20040;-68
2024/01/23 10:26:59;;;;;;;19.80;3.97;;;7.20;99.90;;;;;;5061572;28;20040;-68
2024/01/23 10:29:25;;;;;;;17.13;3.07;;;7.20;99.90;;;;;;5062722;28;20040;-68
2024/01/23 10:31:51;;;;;;;20.25;3.50;;;7.30;99.90;;;;;;5040625;28;20087;-68
2024/01/23 10:34:17;;;;;;;25.30;2.97;;;7.30;99.90;;;;;;5056382;28;20044;-68
2024/01/23 10:36:43;;;;;;;24.50;3.33;;;7.40;99.90;;;;;;5060283;28;20266;-68
2024/01/23 10:39:10;;;;;;;19.02;3.45;;;7.40;99.90;;;;;;5062438;28;20088;-68
2024/01/23 10:41:37;;;;;;;25.83;4.80;;;7.50;99.90;;;;;;5057998;28;20417;-68
2024/01/23 10:44:03;;;;;;;;;;;7.60;99.90;;;;;;5053199;28;20036;-68
2024/01/23 10:46:30;;;;;;;17.35;3.67;;;7.50;99.90;;;;;;5054827;28;19916;-68
2024/01/23 10:48:56;;;;;;;24.65;3.55;;;7.50;99.90;;;;;;5037334;28;20318;-68
2024/01/23 10:51:25;;;;;;;20.60;3.05;;;7.60;99.90;;;;;;5058903;28;20311;-68
2024/01/23 10:54:03;;;;;;;21.27;3.45;;;7.70;99.90;;;;;;5049300;28;20132;-68
2024/01/23 10:56:34;;;;;;;30.05;3.13;;;7.80;99.90;;;;;;5054902;28;20048;-68
2024/01/23 10:59:01;;;;;;;26.45;3.90;;;7.80;99.90;;;;;;5056511;28;20045;-68
2024/01/23 11:01:35;;;;;;;24.88;3.33;;;7.80;99.90;;;;;;5055781;28;20132;-67
2024/01/23 11:04:01;;;;;;;21.67;3.65;;;7.90;99.90;;;;;;5056054;28;20077;-68
2024/01/23 11:06:36;;;;;;;22.70;3.33;;;7.90;99.90;;;;;;5042489;28;20075;-69
2024/01/23 11:09:09;;;;;;;30.98;3.28;;;8.00;99.90;;;;;;5059135;28;20041;-68
2024/01/23 11:11:53;;;;;;;24.30;3.58;;;8.10;99.90;;;;;;5063802;28;20032;-68
2024/01/23 11:14:25;;;;;;;22.60;4.10;;;8.10;99.90;;;;;;5052362;28;20112;-68
2024/01/23 11:17:08;;;;;;;22.90;3.72;;;8.10;99.90;;;;;;5054226;28;20041;-68
2024/01/23 11:19:45;;;;;;;15.27;3.15;;;8.10;99.90;;;;;;5058766;28;20036;-67
2024/01/23 11:22:12;;;;;;;17.02;2.92;;;8.10;99.90;;;;;;5056337;28;20044;-67
2024/01/23 11:24:39;;;;;;;17.77;3.22;;;8.10;99.90;;;;;;5060055;28;20400;-67
2024/01/23 11:27:05;;;;;;;24.92;3.20;;;8.10;99.90;;;;;;5049878;28;20128;-68
2024/01/23 11:29:32;;;;;;;16.92;3.25;;;8.10;99.90;;;;;;5063987;28;20036;-68
2024/01/23 11:31:58;;;;;;;18.02;3.22;;;8.10;99.90;;;;;;5051894;28;20044;-67
2024/01/23 11:34:24;;;;;;;15.57;3.60;;;8.10;99.90;;;;;;5061559;28;20040;-67
2024/01/23 11:36:49;;;;;;;19.37;3.03;;;8.10;99.90;;;;;;5058717;28;20053;-67
2024/01/23 11:39:16;;;;;;;24.50;4.70;;;8.00;99.90;;;;;;5063828;28;20086;-69
2024/01/23 11:41:52;;;;;;;20.98;4.25;;;8.00;99.90;;;;;;5041333;28;20029;-68
2024/01/23 11:44:19;;;;;;;21.67;4.13;;;7.90;99.90;;;;;;5064040;28;20535;-68
2024/01/23 11:46:49;;;;;;;31.20;4.65;;;7.90;99.90;;;;;;5044080;28;20051;-68
2024/01/23 11:49:15;;;;;;;27.00;4.10;;;7.90;99.90;;;;;;5059609;28;20454;-68
2024/01/23 11:51:42;;;;;;;23.88;4.40;;;8.00;99.90;;;;;;5063113;28;20812;-68
2024/01/23 11:54:10;;;;;;;16.27;4.25;;;8.00;99.90;;;;;;5056014;28;20124;-68
2024/01/23 11:56:40;;;;;;;16.98;3.42;;;8.00;99.90;;;;;;5056822;28;20124;-67
2024/01/23 11:59:06;;;;;;;24.38;2.92;;;8.00;99.90;;;;;;5054385;28;21228;-68
2024/01/23 12:01:34;;;;;;;21.45;3.10;;;8.00;99.90;;;;;;5064173;28;20135;-68
2024/01/23 12:04:01;;;;;;;27.00;4.45;;;8.00;99.90;;;;;;5055873;28;20048;-68
2024/01/23 12:06:26;;;;;;;21.60;2.80;;;8.10;99.90;;;;;;5056422;28;20067;-67
2024/01/23 12:08:52;;;;;;;15.10;3.53;;;8.00;99.90;;;;;;5055915;28;20505;-68
2024/01/23 12:11:19;;;;;;;21.37;4.10;;;8.00;99.90;;;;;;5057877;28;20108;-68
2024/01/23 12:13:48;;;;;;;;;;;8.00;99.90;;;;;;5056934;28;20033;-68
2024/01/23 12:16:15;;;;;;;19.20;2.97;;;8.00;99.90;;;;;;5053858;28;19925;-68
2024/01/23 12:18:41;;;;;;;23.60;3.88;;;8.00;99.90;;;;;;5061281;28;20045;-68
2024/01/23 12:21:07;;;;;;;19.00;3.63;;;8.10;99.90;;;;;;5059728;28;20100;-67
2024/01/23 12:23:33;;;;;;;19.90;3.08;;;8.20;99.90;;;;;;5040027;28;20060;-68
2024/01/23 12:25:59;;;;;;;;;;;8.20;99.90;;;;;;5056492;28;20166;-67
2024/01/23 12:28:29;;;;;;;20.83;3.22;;;8.20;99.90;;;;;;5061503;28;20007;-68
2024/01/23 12:30:55;;;;;;;22.08;3.95;;;8.20;99.90;;;;;;5054377;28;20056;-67
2024/01/23 12:33:21;;;;;;;22.95;3.95;;;8.30;99.90;;;;;;5055906;28;20037;-68
2024/01/23 12:35:48;;;;;;;23.88;3.08;;;8.40;99.90;;;;;;5058595;28;20418;-68
2024/01/23 12:38:18;;;;;;;26.45;3.65;;;8.30;99.90;;;;;;5056120;28;20388;-68
2024/01/23 12:40:44;;;;;;;23.80;3.90;;;8.20;99.90;;;;;;5060759;28;20040;-67
2024/01/23 12:43:10;;;;;;;11.73;2.30;;;8.20;99.90;;;;;;5053830;28;20075;-67
2024/01/23 12:45:36;;;;;;;23.63;3.67;;;8.30;99.90;;;;;;5059642;28;20083;-67